sensor_id;sensor_type;location;lat;lon;timestamp;temperature;humidity
15083;DHT22;7640;53.116;6.878;2022-08-21T00:00:43;18.00;99.90
15083;DHT22;7640;53.116;6.878;2022-08-21T00:03:13;18.00;99.90
15083;DHT22;7640;53.116;6.878;2022-08-21T00:05:43;18.00;99.90
15083;DHT22;7640;53.116;6.878;2022-08-21T00:08:12;17.90;99.90
15083;DHT22;7640;53.116;6.878;2022-08-21T00:10:42;18.10;99.90
15083;DHT22;7640;53.116;6.878;2022-08-21T00:13:13;17.90;99.90
15083;DHT22;7640;53.116;6.878;2022-08-21T00:15:44;17.90;99.90
15083;DHT22;7640;53.116;6.878;2022-08-21T00:18:15;17.80;99.90
15083;DHT22;7640;53.116;6.878;2022-08-21T00:20:44;17.80;99.90
15083;DHT22;7640;53.116;6.878;2022-08-21T00:23:13;17.80;99.90
15083;DHT22;7640;53.116;6.878;2022-08-21T00:25:42;17.70;99.90
15083;DHT22;7640;53.116;6.878;2022-08-21T00:28:12;17.70;99.90
15083;DHT22;7640;53.116;6.878;2022-08-21T00:30:41;17.70;99.90
15083;DHT22;7640;53.116;6.878;2022-08-21T00:33:11;17.60;99.90
15083;DHT22;7640;53.116;6.878;2022-08-21T00:35:41;17.60;99.90
15083;DHT22;7640;53.116;6.878;2022-08-21T00:38:10;17.60;99.90
15083;DHT22;7640;53.116;6.878;2022-08-21T00:40:44;17.50;99.90
15083;DHT22;7640;53.116;6.878;2022-08-21T00:43:17;17.50;99.90
15083;DHT22;7640;53.116;6.878;2022-08-21T00:45:48;17.50;99.90
15083;DHT22;7640;53.116;6.878;2022-08-21T00:48:16;17.40;99.90
15083;DHT22;7640;53.116;6.878;2022-08-21T00:50:50;17.40;99.90
15083;DHT22;7640;53.116;6.878;2022-08-21T00:53:22;17.40;99.90
15083;DHT22;7640;53.116;6.878;2022-08-21T00:55:51;17.30;99.90
15083;DHT22;7640;53.116;6.878;2022-08-21T00:58:24;17.30;99.90
15083;DHT22;7640;53.116;6.878;2022-08-21T01:00:55;17.30;99.90
15083;DHT22;7640;53.116;6.878;2022-08-21T01:03:24;17.20;99.90
15083;DHT22;7640;53.116;6.878;2022-08-21T01:05:53;17.20;99.90
15083;DHT22;7640;53.116;6.878;2022-08-21T01:08:23;17.20;99.90
15083;DHT22;7640;53.116;6.878;2022-08-21T01:10:53;17.10;99.90
15083;DHT22;7640;53.116;6.878;2022-08-21T01:13:23;17.10;99.90
15083;DHT22;7640;53.116;6.878;2022-08-21T01:15:54;17.10;99.90
15083;DHT22;7640;53.116;6.878;2022-08-21T01:18:26;17.10;99.90
15083;DHT22;7640;53.116;6.878;2022-08-21T01:21:06;17.00;99.90
15083;DHT22;7640;53.116;6.878;2022-08-21T01:23:41;17.00;99.90
15083;DHT22;7640;53.116;6.878;2022-08-21T01:26:14;17.00;99.90
15083;DHT22;7640;53.116;6.878;2022-08-21T01:28:47;16.90;99.90
15083;DHT22;7640;53.116;6.878;2022-08-21T01:31:19;16.90;99.90
15083;DHT22;7640;53.116;6.878;2022-08-21T01:33:52;16.90;99.90
15083;DHT22;7640;53.116;6.878;2022-08-21T01:36:23;16.90;99.90
15083;DHT22;7640;53.116;6.878;2022-08-21T01:38:52;16.90;99.90
15083;DHT22;7640;53.116;6.878;2022-08-21T01:41:20;16.80;99.90
15083;DHT22;7640;53.116;6.878;2022-08-21T01:43:49;16.80;99.90
15083;DHT22;7640;53.116;6.878;2022-08-21T01:46:17;16.80;99.90
15083;DHT22;7640;53.116;6.878;2022-08-21T01:48:45;16.80;99.90
15083;DHT22;7640;53.116;6.878;2022-08-21T01:51:13;16.70;99.90
15083;DHT22;7640;53.116;6.878;2022-08-21T01:53:43;16.70;99.90
15083;DHT22;7640;53.116;6.878;2022-08-21T01:56:13;16.70;99.90
15083;DHT22;7640;53.116;6.878;2022-08-21T01:58:44;16.60;99.90
15083;DHT22;7640;53.116;6.878;2022-08-21T02:01:14;16.60;99.90
15083;DHT22;7640;53.116;6.878;2022-08-21T02:03:42;16.60;99.90
15083;DHT22;7640;53.116;6.878;2022-08-21T02:06:14;16.60;99.90
15083;DHT22;7640;53.116;6.878;2022-08-21T02:08:46;16.50;99.90
15083;DHT22;7640;53.116;6.878;2022-08-21T02:11:17;16.50;99.90
15083;DHT22;7640;53.116;6.878;2022-08-21T02:13:45;16.50;99.90
15083;DHT22;7640;53.116;6.878;2022-08-21T02:16:13;16.50;99.90
15083;DHT22;7640;53.116;6.878;2022-08-21T02:18:45;16.40;99.90
15083;DHT22;7640;53.116;6.878;2022-08-21T02:21:13;16.40;99.90
15083;DHT22;7640;53.116;6.878;2022-08-21T02:23:42;16.40;99.90
15083;DHT22;7640;53.116;6.878;2022-08-21T02:26:12;16.30;99.90
15083;DHT22;7640;53.116;6.878;2022-08-21T02:28:41;16.30;99.90
15083;DHT22;7640;53.116;6.878;2022-08-21T02:31:09;16.30;99.90
15083;DHT22;7640;53.116;6.878;2022-08-21T02:33:39;16.30;99.90
15083;DHT22;7640;53.116;6.878;2022-08-21T02:36:08;16.30;99.90
15083;DHT22;7640;53.116;6.878;2022-08-21T02:38:38;16.20;99.90
15083;DHT22;7640;53.116;6.878;2022-08-21T02:41:09;16.20;99.90
15083;DHT22;7640;53.116;6.878;2022-08-21T02:43:41;16.20;99.90
15083;DHT22;7640;53.116;6.878;2022-08-21T02:46:11;16.00;99.90
15083;DHT22;7640;53.116;6.878;2022-08-21T02:48:41;16.20;99.90
15083;DHT22;7640;53.116;6.878;2022-08-21T02:51:12;16.10;99.90
15083;DHT22;7640;53.116;6.878;2022-08-21T02:53:41;16.20;99.90
15083;DHT22;7640;53.116;6.878;2022-08-21T02:56:14;16.20;99.90
15083;DHT22;7640;53.116;6.878;2022-08-21T02:58:46;16.20;99.90
15083;DHT22;7640;53.116;6.878;2022-08-21T03:01:15;16.10;99.90
15083;DHT22;7640;53.116;6.878;2022-08-21T03:03:45;16.10;99.90
15083;DHT22;7640;53.116;6.878;2022-08-21T03:06:18;16.10;99.90
15083;DHT22;7640;53.116;6.878;2022-08-21T03:08:48;16.10;99.90
15083;DHT22;7640;53.116;6.878;2022-08-21T03:11:18;16.10;99.90
15083;DHT22;7640;53.116;6.878;2022-08-21T03:13:47;16.10;99.90
15083;DHT22;7640;53.116;6.878;2022-08-21T03:16:15;16.10;99.90
15083;DHT22;7640;53.116;6.878;2022-08-21T03:18:45;16.10;99.90
15083;DHT22;7640;53.116;6.878;2022-08-21T03:21:13;16.10;99.90
15083;DHT22;7640;53.116;6.878;2022-08-21T03:23:42;16.10;99.90
15083;DHT22;7640;53.116;6.878;2022-08-21T03:26:10;16.10;99.90
15083;DHT22;7640;53.116;6.878;2022-08-21T03:28:40;16.10;99.90
15083;DHT22;7640;53.116;6.878;2022-08-21T03:31:09;16.10;99.90
15083;DHT22;7640;53.116;6.878;2022-08-21T03:33:37;16.10;99.90
15083;DHT22;7640;53.116;6.878;2022-08-21T03:36:07;16.10;99.90
15083;DHT22;7640;53.116;6.878;2022-08-21T03:38:36;16.10;99.90
15083;DHT22;7640;53.116;6.878;2022-08-21T03:41:06;16.00;99.90
15083;DHT22;7640;53.116;6.878;2022-08-21T03:43:35;16.10;99.90
15083;DHT22;7640;53.116;6.878;2022-08-21T03:46:06;16.00;99.90
15083;DHT22;7640;53.116;6.878;2022-08-21T03:48:37;16.00;99.90
15083;DHT22;7640;53.116;6.878;2022-08-21T03:51:06;16.00;99.90
15083;DHT22;7640;53.116;6.878;2022-08-21T03:53:34;16.00;99.90
15083;DHT22;7640;53.116;6.878;2022-08-21T03:56:03;16.00;99.90
15083;DHT22;7640;53.116;6.878;2022-08-21T03:58:32;16.00;99.90
15083;DHT22;7640;53.116;6.878;2022-08-21T04:01:01;15.90;99.90
15083;DHT22;7640;53.116;6.878;2022-08-21T04:03:34;15.90;99.90
15083;DHT22;7640;53.116;6.878;2022-08-21T04:06:04;15.90;99.90
15083;DHT22;7640;53.116;6.878;2022-08-21T04:08:33;15.90;99.90
15083;DHT22;7640;53.116;6.878;2022-08-21T04:11:01;15.90;99.90
15083;DHT22;7640;53.116;6.878;2022-08-21T04:13:30;15.90;99.90
15083;DHT22;7640;53.116;6.878;2022-08-21T04:15:58;15.90;99.90
15083;DHT22;7640;53.116;6.878;2022-08-21T04:18:26;15.90;99.90
15083;DHT22;7640;53.116;6.878;2022-08-21T04:20:57;15.90;99.90
15083;DHT22;7640;53.116;6.878;2022-08-21T04:23:30;15.90;99.90
15083;DHT22;7640;53.116;6.878;2022-08-21T04:25:58;15.90;99.90
15083;DHT22;7640;53.116;6.878;2022-08-21T04:28:27;15.90;99.90
15083;DHT22;7640;53.116;6.878;2022-08-21T04:30:57;15.90;99.90
15083;DHT22;7640;53.116;6.878;2022-08-21T04:33:25;15.90;99.90
15083;DHT22;7640;53.116;6.878;2022-08-21T04:35:54;15.80;99.90
15083;DHT22;7640;53.116;6.878;2022-08-21T04:38:23;15.80;99.90
15083;DHT22;7640;53.116;6.878;2022-08-21T04:41:02;15.80;99.90
15083;DHT22;7640;53.116;6.878;2022-08-21T04:43:31;15.80;99.90
15083;DHT22;7640;53.116;6.878;2022-08-21T04:45:59;15.70;99.90
15083;DHT22;7640;53.116;6.878;2022-08-21T04:48:28;15.70;99.90
15083;DHT22;7640;53.116;6.878;2022-08-21T04:51:02;15.70;99.90
15083;DHT22;7640;53.116;6.878;2022-08-21T04:53:36;15.70;99.90
15083;DHT22;7640;53.116;6.878;2022-08-21T04:56:09;15.80;99.90
15083;DHT22;7640;53.116;6.878;2022-08-21T04:58:39;15.80;99.90
15083;DHT22;7640;53.116;6.878;2022-08-21T05:01:17;15.70;99.90
15083;DHT22;7640;53.116;6.878;2022-08-21T05:03:48;15.80;99.90
15083;DHT22;7640;53.116;6.878;2022-08-21T05:06:19;15.80;99.90
15083;DHT22;7640;53.116;6.878;2022-08-21T05:08:51;15.80;99.90
15083;DHT22;7640;53.116;6.878;2022-08-21T05:11:28;15.90;99.90
15083;DHT22;7640;53.116;6.878;2022-08-21T05:13:57;15.90;99.90
15083;DHT22;7640;53.116;6.878;2022-08-21T05:16:26;15.90;99.90
15083;DHT22;7640;53.116;6.878;2022-08-21T05:19:03;15.90;99.90
15083;DHT22;7640;53.116;6.878;2022-08-21T05:21:33;16.00;99.90
15083;DHT22;7640;53.116;6.878;2022-08-21T05:24:02;16.10;99.90
15083;DHT22;7640;53.116;6.878;2022-08-21T05:26:30;16.10;99.90
15083;DHT22;7640;53.116;6.878;2022-08-21T05:29:11;16.10;99.90
15083;DHT22;7640;53.116;6.878;2022-08-21T05:31:39;16.20;99.90
15083;DHT22;7640;53.116;6.878;2022-08-21T05:34:07;16.20;99.90
15083;DHT22;7640;53.116;6.878;2022-08-21T05:36:37;16.30;99.90
15083;DHT22;7640;53.116;6.878;2022-08-21T05:39:05;16.30;99.90
15083;DHT22;7640;53.116;6.878;2022-08-21T05:41:33;16.40;99.90
15083;DHT22;7640;53.116;6.878;2022-08-21T05:44:01;16.50;99.90
15083;DHT22;7640;53.116;6.878;2022-08-21T05:46:36;16.50;99.90
15083;DHT22;7640;53.116;6.878;2022-08-21T05:49:04;16.60;99.90
15083;DHT22;7640;53.116;6.878;2022-08-21T05:51:32;16.70;99.90
15083;DHT22;7640;53.116;6.878;2022-08-21T05:54:02;16.80;99.90
15083;DHT22;7640;53.116;6.878;2022-08-21T05:56:31;16.80;99.90
15083;DHT22;7640;53.116;6.878;2022-08-21T05:58:59;16.90;99.90
15083;DHT22;7640;53.116;6.878;2022-08-21T06:01:27;17.00;99.90
15083;DHT22;7640;53.116;6.878;2022-08-21T06:03:57;17.00;99.90
15083;DHT22;7640;53.116;6.878;2022-08-21T06:06:27;17.20;99.90
15083;DHT22;7640;53.116;6.878;2022-08-21T06:08:55;17.20;99.90
15083;DHT22;7640;53.116;6.878;2022-08-21T06:11:24;17.30;99.90
15083;DHT22;7640;53.116;6.878;2022-08-21T06:13:58;17.40;99.90
15083;DHT22;7640;53.116;6.878;2022-08-21T06:16:27;17.50;99.90
15083;DHT22;7640;53.116;6.878;2022-08-21T06:18:56;17.60;99.90
15083;DHT22;7640;53.116;6.878;2022-08-21T06:21:28;17.60;99.90
15083;DHT22;7640;53.116;6.878;2022-08-21T06:23:57;17.70;99.90
15083;DHT22;7640;53.116;6.878;2022-08-21T06:26:26;17.80;99.90
15083;DHT22;7640;53.116;6.878;2022-08-21T06:28:55;17.90;99.90
15083;DHT22;7640;53.116;6.878;2022-08-21T06:31:26;17.90;99.90
15083;DHT22;7640;53.116;6.878;2022-08-21T06:33:55;18.00;99.90
15083;DHT22;7640;53.116;6.878;2022-08-21T06:36:23;18.10;99.90
15083;DHT22;7640;53.116;6.878;2022-08-21T06:38:52;18.10;99.90
15083;DHT22;7640;53.116;6.878;2022-08-21T06:41:22;18.30;99.90
15083;DHT22;7640;53.116;6.878;2022-08-21T06:43:55;18.30;99.90
15083;DHT22;7640;53.116;6.878;2022-08-21T06:46:24;18.40;99.90
15083;DHT22;7640;53.116;6.878;2022-08-21T06:48:54;18.40;99.90
15083;DHT22;7640;53.116;6.878;2022-08-21T06:51:23;18.50;99.90
15083;DHT22;7640;53.116;6.878;2022-08-21T06:53:52;18.70;99.90
15083;DHT22;7640;53.116;6.878;2022-08-21T06:56:21;18.80;99.90
15083;DHT22;7640;53.116;6.878;2022-08-21T06:58:49;18.90;99.90
15083;DHT22;7640;53.116;6.878;2022-08-21T07:01:19;19.00;99.90
15083;DHT22;7640;53.116;6.878;2022-08-21T07:03:50;19.10;99.90
15083;DHT22;7640;53.116;6.878;2022-08-21T07:06:19;19.20;99.90
15083;DHT22;7640;53.116;6.878;2022-08-21T07:08:47;19.20;99.90
15083;DHT22;7640;53.116;6.878;2022-08-21T07:11:18;19.40;99.90
15083;DHT22;7640;53.116;6.878;2022-08-21T07:13:48;19.50;99.90
15083;DHT22;7640;53.116;6.878;2022-08-21T07:16:21;19.60;99.90
15083;DHT22;7640;53.116;6.878;2022-08-21T07:18:49;19.70;99.90
15083;DHT22;7640;53.116;6.878;2022-08-21T07:21:17;19.80;99.90
15083;DHT22;7640;53.116;6.878;2022-08-21T07:23:52;19.90;99.90
15083;DHT22;7640;53.116;6.878;2022-08-21T07:26:21;20.00;99.90
15083;DHT22;7640;53.116;6.878;2022-08-21T07:28:50;20.10;99.90
15083;DHT22;7640;53.116;6.878;2022-08-21T07:31:22;20.20;99.90
15083;DHT22;7640;53.116;6.878;2022-08-21T07:33:52;20.30;99.90
15083;DHT22;7640;53.116;6.878;2022-08-21T07:36:22;20.40;99.90
15083;DHT22;7640;53.116;6.878;2022-08-21T07:38:50;20.50;99.90
15083;DHT22;7640;53.116;6.878;2022-08-21T07:41:20;20.60;99.90
15083;DHT22;7640;53.116;6.878;2022-08-21T07:43:51;20.70;99.90
15083;DHT22;7640;53.116;6.878;2022-08-21T07:46:20;20.80;99.90
15083;DHT22;7640;53.116;6.878;2022-08-21T07:48:48;20.90;99.90
15083;DHT22;7640;53.116;6.878;2022-08-21T07:51:21;21.00;99.90
15083;DHT22;7640;53.116;6.878;2022-08-21T07:53:53;21.10;99.90
15083;DHT22;7640;53.116;6.878;2022-08-21T07:56:22;21.10;99.90
15083;DHT22;7640;53.116;6.878;2022-08-21T07:58:51;21.20;99.90
15083;DHT22;7640;53.116;6.878;2022-08-21T08:01:21;21.30;99.90
15083;DHT22;7640;53.116;6.878;2022-08-21T08:03:50;21.30;99.90
15083;DHT22;7640;53.116;6.878;2022-08-21T08:06:18;21.40;99.90
15083;DHT22;7640;53.116;6.878;2022-08-21T08:08:47;21.50;99.90
15083;DHT22;7640;53.116;6.878;2022-08-21T08:11:15;21.60;99.90
15083;DHT22;7640;53.116;6.878;2022-08-21T08:13:45;21.70;99.90
15083;DHT22;7640;53.116;6.878;2022-08-21T08:16:15;21.80;99.90
15083;DHT22;7640;53.116;6.878;2022-08-21T08:18:45;21.90;99.90
15083;DHT22;7640;53.116;6.878;2022-08-21T08:21:14;21.90;99.90
15083;DHT22;7640;53.116;6.878;2022-08-21T08:23:42;22.00;99.90
15083;DHT22;7640;53.116;6.878;2022-08-21T08:26:11;22.00;99.90
15083;DHT22;7640;53.116;6.878;2022-08-21T08:28:40;22.10;99.90
15083;DHT22;7640;53.116;6.878;2022-08-21T08:31:08;22.20;99.90
15083;DHT22;7640;53.116;6.878;2022-08-21T08:33:36;22.30;99.90
15083;DHT22;7640;53.116;6.878;2022-08-21T08:36:13;22.30;99.90
15083;DHT22;7640;53.116;6.878;2022-08-21T08:38:42;22.30;99.90
15083;DHT22;7640;53.116;6.878;2022-08-21T08:41:13;22.40;99.90
15083;DHT22;7640;53.116;6.878;2022-08-21T08:43:49;22.50;99.90
15083;DHT22;7640;53.116;6.878;2022-08-21T08:46:24;22.40;99.90
15083;DHT22;7640;53.116;6.878;2022-08-21T08:49:00;22.60;99.90
15083;DHT22;7640;53.116;6.878;2022-08-21T08:51:39;22.70;99.90
15083;DHT22;7640;53.116;6.878;2022-08-21T08:54:15;22.80;99.90
15083;DHT22;7640;53.116;6.878;2022-08-21T08:56:45;22.80;99.90
15083;DHT22;7640;53.116;6.878;2022-08-21T08:59:16;22.90;99.90
15083;DHT22;7640;53.116;6.878;2022-08-21T09:01:46;23.00;99.90
15083;DHT22;7640;53.116;6.878;2022-08-21T09:04:18;23.00;99.90
15083;DHT22;7640;53.116;6.878;2022-08-21T09:06:59;23.10;99.90
15083;DHT22;7640;53.116;6.878;2022-08-21T09:09:44;23.30;99.90
15083;DHT22;7640;53.116;6.878;2022-08-21T09:12:28;23.40;99.90
15083;DHT22;7640;53.116;6.878;2022-08-21T09:15:07;23.40;99.90
15083;DHT22;7640;53.116;6.878;2022-08-21T09:17:56;23.50;99.90
15083;DHT22;7640;53.116;6.878;2022-08-21T09:20:38;23.50;99.90
15083;DHT22;7640;53.116;6.878;2022-08-21T09:23:21;23.60;99.90
15083;DHT22;7640;53.116;6.878;2022-08-21T09:25:58;23.70;99.90
15083;DHT22;7640;53.116;6.878;2022-08-21T09:28:31;23.70;99.90
15083;DHT22;7640;53.116;6.878;2022-08-21T09:31:03;23.80;99.90
15083;DHT22;7640;53.116;6.878;2022-08-21T09:33:34;23.90;99.90
15083;DHT22;7640;53.116;6.878;2022-08-21T09:36:03;24.00;99.90
15083;DHT22;7640;53.116;6.878;2022-08-21T09:38:35;24.00;99.90
15083;DHT22;7640;53.116;6.878;2022-08-21T09:41:06;24.10;99.90
15083;DHT22;7640;53.116;6.878;2022-08-21T09:43:37;24.20;99.90
15083;DHT22;7640;53.116;6.878;2022-08-21T09:46:08;24.20;99.90
15083;DHT22;7640;53.116;6.878;2022-08-21T09:48:44;24.30;99.90
15083;DHT22;7640;53.116;6.878;2022-08-21T09:51:16;24.40;99.90
15083;DHT22;7640;53.116;6.878;2022-08-21T09:53:51;24.50;99.90
15083;DHT22;7640;53.116;6.878;2022-08-21T09:56:29;24.60;99.90
15083;DHT22;7640;53.116;6.878;2022-08-21T09:59:19;24.70;99.90
15083;DHT22;7640;53.116;6.878;2022-08-21T10:01:53;24.80;99.90
15083;DHT22;7640;53.116;6.878;2022-08-21T10:04:24;25.00;99.90
15083;DHT22;7640;53.116;6.878;2022-08-21T10:07:06;25.00;99.90
15083;DHT22;7640;53.116;6.878;2022-08-21T10:09:37;25.00;99.90
15083;DHT22;7640;53.116;6.878;2022-08-21T10:12:12;25.20;99.90
15083;DHT22;7640;53.116;6.878;2022-08-21T10:14:50;25.30;99.90
15083;DHT22;7640;53.116;6.878;2022-08-21T10:17:27;25.40;99.90
15083;DHT22;7640;53.116;6.878;2022-08-21T10:20:03;25.60;99.90
15083;DHT22;7640;53.116;6.878;2022-08-21T10:22:41;25.70;99.90
15083;DHT22;7640;53.116;6.878;2022-08-21T10:25:21;25.80;99.90
15083;DHT22;7640;53.116;6.878;2022-08-21T10:28:00;26.10;99.90
15083;DHT22;7640;53.116;6.878;2022-08-21T10:30:52;26.40;99.90
15083;DHT22;7640;53.116;6.878;2022-08-21T10:33:31;26.50;99.90
15083;DHT22;7640;53.116;6.878;2022-08-21T10:36:09;26.60;99.90
15083;DHT22;7640;53.116;6.878;2022-08-21T10:38:56;26.70;99.90
15083;DHT22;7640;53.116;6.878;2022-08-21T10:42:09;26.60;99.90
15083;DHT22;7640;53.116;6.878;2022-08-21T10:44:59;26.40;99.90
15083;DHT22;7640;53.116;6.878;2022-08-21T10:47:44;26.30;99.90
15083;DHT22;7640;53.116;6.878;2022-08-21T10:50:29;26.40;99.90
15083;DHT22;7640;53.116;6.878;2022-08-21T10:53:21;26.50;99.90
15083;DHT22;7640;53.116;6.878;2022-08-21T10:56:02;26.50;99.90
15083;DHT22;7640;53.116;6.878;2022-08-21T10:58:38;26.40;99.90
15083;DHT22;7640;53.116;6.878;2022-08-21T11:01:15;26.50;99.90
15083;DHT22;7640;53.116;6.878;2022-08-21T11:03:48;26.70;99.90
15083;DHT22;7640;53.116;6.878;2022-08-21T11:06:23;26.90;99.90
15083;DHT22;7640;53.116;6.878;2022-08-21T11:08:57;26.90;99.90
15083;DHT22;7640;53.116;6.878;2022-08-21T11:11:32;27.00;99.90
15083;DHT22;7640;53.116;6.878;2022-08-21T11:14:24;27.00;99.90
15083;DHT22;7640;53.116;6.878;2022-08-21T11:17:02;27.00;99.90
15083;DHT22;7640;53.116;6.878;2022-08-21T11:19:58;27.00;99.90
15083;DHT22;7640;53.116;6.878;2022-08-21T11:22:43;27.10;99.90
15083;DHT22;7640;53.116;6.878;2022-08-21T11:25:26;27.30;99.90
15083;DHT22;7640;53.116;6.878;2022-08-21T11:28:08;27.40;99.90
15083;DHT22;7640;53.116;6.878;2022-08-21T11:30:48;27.40;99.90
15083;DHT22;7640;53.116;6.878;2022-08-21T11:33:31;27.30;99.90
15083;DHT22;7640;53.116;6.878;2022-08-21T11:36:17;27.20;99.90
15083;DHT22;7640;53.116;6.878;2022-08-21T11:38:55;27.10;99.90
15083;DHT22;7640;53.116;6.878;2022-08-21T11:41:30;27.00;99.90
15083;DHT22;7640;53.116;6.878;2022-08-21T11:44:07;26.90;99.90
15083;DHT22;7640;53.116;6.878;2022-08-21T11:46:48;26.70;99.90
15083;DHT22;7640;53.116;6.878;2022-08-21T11:49:26;26.60;99.90
15083;DHT22;7640;53.116;6.878;2022-08-21T11:52:10;26.40;99.90
15083;DHT22;7640;53.116;6.878;2022-08-21T11:54:44;26.30;99.90
15083;DHT22;7640;53.116;6.878;2022-08-21T11:57:19;26.20;99.90
15083;DHT22;7640;53.116;6.878;2022-08-21T11:59:54;26.10;99.90
15083;DHT22;7640;53.116;6.878;2022-08-21T12:02:33;26.10;99.90
15083;DHT22;7640;53.116;6.878;2022-08-21T12:05:06;26.00;99.90
15083;DHT22;7640;53.116;6.878;2022-08-21T12:07:38;25.90;99.90
15083;DHT22;7640;53.116;6.878;2022-08-21T12:10:10;25.80;99.90
15083;DHT22;7640;53.116;6.878;2022-08-21T12:12:42;25.70;99.90
15083;DHT22;7640;53.116;6.878;2022-08-21T12:15:24;25.50;99.90
15083;DHT22;7640;53.116;6.878;2022-08-21T12:18:01;25.40;99.90
15083;DHT22;7640;53.116;6.878;2022-08-21T12:20:42;25.20;99.90
15083;DHT22;7640;53.116;6.878;2022-08-21T12:23:26;25.00;99.90
15083;DHT22;7640;53.116;6.878;2022-08-21T12:26:23;24.80;99.90
15083;DHT22;7640;53.116;6.878;2022-08-21T12:29:12;24.80;99.90
15083;DHT22;7640;53.116;6.878;2022-08-21T12:31:52;25.40;99.90
15083;DHT22;7640;53.116;6.878;2022-08-21T12:34:34;25.20;99.90
15083;DHT22;7640;53.116;6.878;2022-08-21T12:37:11;25.90;99.90
15083;DHT22;7640;53.116;6.878;2022-08-21T12:39:44;26.60;99.90
15083;DHT22;7640;53.116;6.878;2022-08-21T12:42:17;27.30;99.90
15083;DHT22;7640;53.116;6.878;2022-08-21T12:44:50;27.80;99.90
15083;DHT22;7640;53.116;6.878;2022-08-21T12:47:27;28.40;99.90
15083;DHT22;7640;53.116;6.878;2022-08-21T12:50:03;29.00;99.90
15083;DHT22;7640;53.116;6.878;2022-08-21T12:52:36;29.40;99.90
15083;DHT22;7640;53.116;6.878;2022-08-21T12:55:11;29.80;99.90
15083;DHT22;7640;53.116;6.878;2022-08-21T12:57:40;30.20;99.90
15083;DHT22;7640;53.116;6.878;2022-08-21T13:00:12;30.20;99.90
15083;DHT22;7640;53.116;6.878;2022-08-21T13:02:49;30.10;99.40
15083;DHT22;7640;53.116;6.878;2022-08-21T13:05:31;29.80;98.20
15083;DHT22;7640;53.116;6.878;2022-08-21T13:08:04;29.60;97.10
15083;DHT22;7640;53.116;6.878;2022-08-21T13:10:35;29.40;97.30
15083;DHT22;7640;53.116;6.878;2022-08-21T13:13:06;29.30;97.50
15083;DHT22;7640;53.116;6.878;2022-08-21T13:15:41;29.30;97.70
15083;DHT22;7640;53.116;6.878;2022-08-21T13:18:21;29.50;97.60
15083;DHT22;7640;53.116;6.878;2022-08-21T13:20:52;29.50;97.00
15083;DHT22;7640;53.116;6.878;2022-08-21T13:23:32;29.40;97.40
15083;DHT22;7640;53.116;6.878;2022-08-21T13:26:17;29.30;97.60
15083;DHT22;7640;53.116;6.878;2022-08-21T13:28:48;29.30;97.40
15083;DHT22;7640;53.116;6.878;2022-08-21T13:31:20;29.20;97.10
15083;DHT22;7640;53.116;6.878;2022-08-21T13:33:50;29.00;96.90
15083;DHT22;7640;53.116;6.878;2022-08-21T13:36:25;28.80;97.20
15083;DHT22;7640;53.116;6.878;2022-08-21T13:38:55;28.60;97.20
15083;DHT22;7640;53.116;6.878;2022-08-21T13:41:26;28.40;97.50
15083;DHT22;7640;53.116;6.878;2022-08-21T13:43:59;28.20;97.80
15083;DHT22;7640;53.116;6.878;2022-08-21T13:46:34;28.20;98.00
15083;DHT22;7640;53.116;6.878;2022-08-21T13:49:05;28.00;98.40
15083;DHT22;7640;53.116;6.878;2022-08-21T13:51:36;27.90;98.70
15083;DHT22;7640;53.116;6.878;2022-08-21T13:54:14;27.70;99.10
15083;DHT22;7640;53.116;6.878;2022-08-21T13:56:46;27.50;99.30
15083;DHT22;7640;53.116;6.878;2022-08-21T13:59:25;27.30;99.40
15083;DHT22;7640;53.116;6.878;2022-08-21T14:01:57;27.10;99.40
15083;DHT22;7640;53.116;6.878;2022-08-21T14:04:33;26.90;99.80
15083;DHT22;7640;53.116;6.878;2022-08-21T14:07:15;26.80;99.90
15083;DHT22;7640;53.116;6.878;2022-08-21T14:09:46;26.70;99.90
15083;DHT22;7640;53.116;6.878;2022-08-21T14:12:17;26.70;99.90
15083;DHT22;7640;53.116;6.878;2022-08-21T14:14:51;26.70;99.90
15083;DHT22;7640;53.116;6.878;2022-08-21T14:17:27;26.70;99.90
15083;DHT22;7640;53.116;6.878;2022-08-21T14:19:59;26.70;99.90
15083;DHT22;7640;53.116;6.878;2022-08-21T14:22:38;26.70;99.90
15083;DHT22;7640;53.116;6.878;2022-08-21T14:25:12;26.80;99.90
15083;DHT22;7640;53.116;6.878;2022-08-21T14:27:44;26.90;99.90
15083;DHT22;7640;53.116;6.878;2022-08-21T14:30:19;27.00;99.90
15083;DHT22;7640;53.116;6.878;2022-08-21T14:32:50;27.10;99.80
15083;DHT22;7640;53.116;6.878;2022-08-21T14:35:19;27.10;99.80
15083;DHT22;7640;53.116;6.878;2022-08-21T14:37:52;27.30;99.90
15083;DHT22;7640;53.116;6.878;2022-08-21T14:40:22;27.40;99.90
15083;DHT22;7640;53.116;6.878;2022-08-21T14:42:52;27.50;99.60
15083;DHT22;7640;53.116;6.878;2022-08-21T14:45:27;27.70;99.50
15083;DHT22;7640;53.116;6.878;2022-08-21T14:47:57;27.80;98.70
15083;DHT22;7640;53.116;6.878;2022-08-21T14:50:26;27.90;98.30
15083;DHT22;7640;53.116;6.878;2022-08-21T14:52:55;27.90;98.10
15083;DHT22;7640;53.116;6.878;2022-08-21T14:55:24;27.90;98.30
15083;DHT22;7640;53.116;6.878;2022-08-21T14:57:55;27.90;98.40
15083;DHT22;7640;53.116;6.878;2022-08-21T15:00:25;28.00;98.40
15083;DHT22;7640;53.116;6.878;2022-08-21T15:03:02;28.10;98.20
15083;DHT22;7640;53.116;6.878;2022-08-21T15:05:30;28.30;98.20
15083;DHT22;7640;53.116;6.878;2022-08-21T15:08:01;28.90;98.40
15083;DHT22;7640;53.116;6.878;2022-08-21T15:10:33;29.70;97.60
15083;DHT22;7640;53.116;6.878;2022-08-21T15:13:18;30.70;97.20
15083;DHT22;7640;53.116;6.878;2022-08-21T15:15:49;31.80;95.80
15083;DHT22;7640;53.116;6.878;2022-08-21T15:18:19;32.50;94.20
15083;DHT22;7640;53.116;6.878;2022-08-21T15:20:48;32.90;93.80
15083;DHT22;7640;53.116;6.878;2022-08-21T15:23:18;33.30;92.50
15083;DHT22;7640;53.116;6.878;2022-08-21T15:25:47;33.40;91.30
15083;DHT22;7640;53.116;6.878;2022-08-21T15:28:17;33.50;91.10
15083;DHT22;7640;53.116;6.878;2022-08-21T15:30:50;33.70;90.60
15083;DHT22;7640;53.116;6.878;2022-08-21T15:33:19;33.40;90.00
15083;DHT22;7640;53.116;6.878;2022-08-21T15:35:48;32.90;90.20
15083;DHT22;7640;53.116;6.878;2022-08-21T15:38:17;32.30;90.80
15083;DHT22;7640;53.116;6.878;2022-08-21T15:40:46;31.60;91.40
15083;DHT22;7640;53.116;6.878;2022-08-21T15:43:23;31.00;91.90
15083;DHT22;7640;53.116;6.878;2022-08-21T15:45:57;30.30;92.50
15083;DHT22;7640;53.116;6.878;2022-08-21T15:48:28;29.70;93.20
15083;DHT22;7640;53.116;6.878;2022-08-21T15:50:56;29.20;94.00
15083;DHT22;7640;53.116;6.878;2022-08-21T15:53:26;28.80;94.50
15083;DHT22;7640;53.116;6.878;2022-08-21T15:55:54;28.40;95.00
15083;DHT22;7640;53.116;6.878;2022-08-21T15:58:22;28.20;95.60
15083;DHT22;7640;53.116;6.878;2022-08-21T16:00:51;28.00;96.00
15083;DHT22;7640;53.116;6.878;2022-08-21T16:03:19;27.90;96.40
15083;DHT22;7640;53.116;6.878;2022-08-21T16:05:48;27.80;96.80
15083;DHT22;7640;53.116;6.878;2022-08-21T16:08:19;27.70;97.40
15083;DHT22;7640;53.116;6.878;2022-08-21T16:10:49;27.80;97.80
15083;DHT22;7640;53.116;6.878;2022-08-21T16:13:22;27.70;97.90
15083;DHT22;7640;53.116;6.878;2022-08-21T16:15:52;27.50;98.20
15083;DHT22;7640;53.116;6.878;2022-08-21T16:18:22;27.20;98.60